createdAt,value
2019-04-03T00:01:16.607Z,8.53
2019-04-03T00:03:46.679Z,6.90
2019-04-03T00:06:17.835Z,8.20
2019-04-03T00:08:47.898Z,7.13
2019-04-03T00:11:17.977Z,8.05
2019-04-03T00:13:48.012Z,8.97
2019-04-03T00:16:20.426Z,8.97
2019-04-03T00:18:50.450Z,10.37
2019-04-03T00:21:20.562Z,11.53
2019-04-03T00:23:52.186Z,9.70
2019-04-03T00:26:22.739Z,10.53
2019-04-03T00:28:52.953Z,9.70
2019-04-03T00:31:23.794Z,13.87
2019-04-03T00:33:55.174Z,12.23
2019-04-03T00:36:25.410Z,11.47
2019-04-03T00:38:55.683Z,9.90
2019-04-03T00:41:25.762Z,14.17
2019-04-03T00:43:55.768Z,11.60
2019-04-03T00:46:25.750Z,9.97
2019-04-03T00:48:56.319Z,11.60
2019-04-03T00:51:27.977Z,12.67
2019-04-03T00:53:58.257Z,14.28
2019-04-03T00:56:28.309Z,10.13
2019-04-03T00:58:58.473Z,9.37
2019-04-03T01:01:28.762Z,12.93
2019-04-03T01:03:59.124Z,13.27
2019-04-03T01:06:29.506Z,9.43
2019-04-03T01:09:00.081Z,11.97
2019-04-03T01:11:32.222Z,10.70
2019-04-03T01:14:02.368Z,10.83
2019-04-03T01:16:33.003Z,10.50
2019-04-03T01:19:05.809Z,9.33
2019-04-03T01:21:37.417Z,10.73
2019-04-03T01:24:08.463Z,9.90
2019-04-03T01:26:40.683Z,9.97
2019-04-03T01:29:12.655Z,10.40
2019-04-03T01:31:44.769Z,9.77
2019-04-03T01:34:17.208Z,9.67
2019-04-03T01:36:48.155Z,11.17
2019-04-03T01:39:18.985Z,9.67
2019-04-03T01:41:51.379Z,10.30
2019-04-03T01:44:24.091Z,9.67
2019-04-03T01:46:53.942Z,10.97
2019-04-03T01:49:24.571Z,10.57
2019-04-03T01:51:54.561Z,10.27
2019-04-03T01:54:24.548Z,9.33
2019-04-03T01:56:54.649Z,9.77
2019-04-03T01:59:24.749Z,9.83
2019-04-03T02:01:55.026Z,8.40
2019-04-03T02:04:25.207Z,8.67
2019-04-03T02:06:55.415Z,8.13
2019-04-03T02:09:25.570Z,8.60
2019-04-03T02:11:55.545Z,8.97
2019-04-03T02:14:25.620Z,9.40
2019-04-03T02:16:56.817Z,8.17
2019-04-03T02:19:27.076Z,9.03
2019-04-03T02:21:58.470Z,9.77
2019-04-03T02:24:31.052Z,8.57
2019-04-03T02:27:00.931Z,8.47
2019-04-03T02:29:32.587Z,8.60
2019-04-03T02:32:04.292Z,9.83
2019-04-03T02:34:35.624Z,8.47
2019-04-03T02:37:06.675Z,9.03
2019-04-03T02:39:36.809Z,8.37
2019-04-03T02:42:08.615Z,9.53
2019-04-03T02:44:38.656Z,8.37
2019-04-03T02:47:08.683Z,8.90
2019-04-03T02:49:41.491Z,8.87
2019-04-03T02:52:10.958Z,9.13
2019-04-03T02:54:41.917Z,9.47
2019-04-03T02:57:11.998Z,8.93
2019-04-03T02:59:42.155Z,8.87
2019-04-03T03:02:13.222Z,10.00
2019-04-03T03:04:43.868Z,9.93
2019-04-03T03:07:13.837Z,9.53
2019-04-03T03:09:46.899Z,8.47
2019-04-03T03:12:18.058Z,11.10
2019-04-03T03:14:48.218Z,10.50
2019-04-03T03:17:21.545Z,10.10
2019-04-03T03:19:51.172Z,13.27
2019-04-03T03:22:22.722Z,13.50
2019-04-03T03:24:53.648Z,8.93
2019-04-03T03:27:23.827Z,9.63
2019-04-03T03:29:54.214Z,11.07
2019-04-03T03:32:31.326Z,9.23
2019-04-03T03:35:07.681Z,10.93
2019-04-03T03:37:28.105Z,11.87
2019-04-03T03:39:58.404Z,10.23
2019-04-03T03:42:31.311Z,9.60
2019-04-03T03:45:02.340Z,9.43
2019-04-03T03:47:35.138Z,13.27
2019-04-03T03:50:06.267Z,12.03
2019-04-03T03:52:38.252Z,12.83
2019-04-03T03:55:08.621Z,15.20
2019-04-03T03:57:40.458Z,11.67
2019-04-03T04:00:10.690Z,11.57
2019-04-03T04:02:43.800Z,9.43
2019-04-03T04:05:12.596Z,9.87
2019-04-03T04:07:42.751Z,10.63
2019-04-03T04:10:13.147Z,9.57
2019-04-03T04:12:43.486Z,12.90
2019-04-03T04:15:13.652Z,10.32
2019-04-03T04:17:43.771Z,10.80
2019-04-03T04:20:14.166Z,10.17
2019-04-03T04:22:44.338Z,10.23
2019-04-03T04:25:14.380Z,10.07
2019-04-03T04:27:44.522Z,11.60
2019-04-03T04:30:16.348Z,11.70
2019-04-03T04:32:46.942Z,9.43
2019-04-03T04:35:17.572Z,11.57
2019-04-03T04:37:50.169Z,9.53
2019-04-03T04:40:20.226Z,10.27
2019-04-03T04:42:50.302Z,11.27
2019-04-03T04:45:20.297Z,9.60
2019-04-03T04:47:50.580Z,10.67
2019-04-03T04:50:25.326Z,9.17
2019-04-03T04:52:58.067Z,10.23
2019-04-03T04:55:27.182Z,12.53
2019-04-03T04:57:58.221Z,9.40
2019-04-03T05:00:29.997Z,8.93
2019-04-03T05:03:01.742Z,10.53
2019-04-03T05:05:32.402Z,9.47
2019-04-03T05:08:02.759Z,9.70
2019-04-03T05:10:32.922Z,10.07
2019-04-03T05:13:03.890Z,9.27
2019-04-03T05:15:34.328Z,9.23
2019-04-03T05:18:04.607Z,8.60
2019-04-03T05:20:34.733Z,9.53
2019-04-03T05:23:04.881Z,9.37
2019-04-03T05:25:34.825Z,9.07
2019-04-03T05:28:04.894Z,8.37
2019-04-03T05:30:37.724Z,7.87
2019-04-03T05:33:06.838Z,8.20
2019-04-03T05:35:37.675Z,7.53
2019-04-03T05:38:07.778Z,8.63
2019-04-03T05:40:37.757Z,7.80
2019-04-03T05:43:08.958Z,8.73
2019-04-03T05:45:41.019Z,7.90
2019-04-03T05:48:13.364Z,7.53
2019-04-03T05:50:43.078Z,8.60
2019-04-03T05:53:14.542Z,7.90
2019-04-03T05:55:45.041Z,8.10
2019-04-03T05:58:16.478Z,11.63
2019-04-03T06:00:46.941Z,8.93
2019-04-03T06:03:17.992Z,8.33
2019-04-03T06:05:48.199Z,8.00
2019-04-03T06:08:19.935Z,8.43
2019-04-03T06:10:49.928Z,12.00
2019-04-03T06:13:20.054Z,11.93
2019-04-03T06:15:52.782Z,11.37
2019-04-03T06:18:26.531Z,10.93
2019-04-03T06:20:57.151Z,10.70
2019-04-03T06:23:28.731Z,10.93
2019-04-03T06:26:01.023Z,10.60
2019-04-03T06:28:30.614Z,9.97
2019-04-03T06:31:00.660Z,10.13
2019-04-03T06:33:31.711Z,10.20
2019-04-03T06:36:02.422Z,10.37
2019-04-03T06:38:32.498Z,9.87
2019-04-03T06:41:03.491Z,10.23
2019-04-03T06:43:35.781Z,9.17
2019-04-03T06:46:05.885Z,9.78
2019-04-03T06:48:37.142Z,10.43
2019-04-03T06:51:07.435Z,9.10
2019-04-03T06:53:37.482Z,9.67
2019-04-03T06:56:09.050Z,9.20
2019-04-03T06:58:40.153Z,9.93
2019-04-03T07:01:10.335Z,9.37
2019-04-03T07:03:40.321Z,8.70
2019-04-03T07:06:12.711Z,8.70
2019-04-03T07:08:42.763Z,10.13
2019-04-03T07:11:22.657Z,9.93
2019-04-03T07:13:44.907Z,9.37
2019-04-03T07:16:15.233Z,9.03
2019-04-03T07:18:46.247Z,9.60
2019-04-03T07:21:16.355Z,9.13
2019-04-03T07:23:46.402Z,11.10
2019-04-03T07:26:16.371Z,9.47
2019-04-03T07:28:46.734Z,12.00
2019-04-03T07:31:16.877Z,8.30
2019-04-03T07:33:47.268Z,10.07
2019-04-03T07:36:17.483Z,11.10
2019-04-03T07:38:47.795Z,11.70
2019-04-03T07:41:18.373Z,9.30
2019-04-03T07:43:49.533Z,10.73
2019-04-03T07:46:19.526Z,8.77
2019-04-03T07:48:49.506Z,10.63
2019-04-03T07:51:19.734Z,10.20
2019-04-03T07:53:51.170Z,9.67
2019-04-03T07:56:21.681Z,9.67
2019-04-03T07:58:51.782Z,10.17
2019-04-03T08:01:22.375Z,9.57
2019-04-03T08:03:53.369Z,10.03
2019-04-03T08:06:23.694Z,8.70
2019-04-03T08:09:06.683Z,9.97
2019-04-03T08:11:26.856Z,10.83
2019-04-03T08:13:56.841Z,9.47
2019-04-03T08:16:26.861Z,11.47
2019-04-03T08:18:57.043Z,10.17
2019-04-03T08:21:28.004Z,10.90
2019-04-03T08:23:58.925Z,13.00
2019-04-03T08:26:29.022Z,9.50
2019-04-03T08:29:01.758Z,11.23
2019-04-03T08:31:30.913Z,13.27
2019-04-03T08:34:00.902Z,11.13
2019-04-03T08:36:30.947Z,11.63
2019-04-03T08:39:01.228Z,11.77
2019-04-03T08:41:32.972Z,10.30
2019-04-03T08:44:07.711Z,10.77
2019-04-03T08:46:36.342Z,10.60
2019-04-03T08:49:06.495Z,10.03
2019-04-03T08:51:36.499Z,10.60
2019-04-03T08:54:09.533Z,10.10
2019-04-03T08:56:38.301Z,10.77
2019-04-03T08:59:08.354Z,10.30
2019-04-03T09:01:38.372Z,11.93
2019-04-03T09:04:08.352Z,10.50
2019-04-03T09:06:38.421Z,12.07
2019-04-03T09:09:09.449Z,11.03
2019-04-03T09:11:39.471Z,10.83
2019-04-03T09:14:09.485Z,10.47
2019-04-03T09:16:39.482Z,10.40
2019-04-03T09:19:10.795Z,9.33
2019-04-03T09:21:41.164Z,9.57
2019-04-03T09:24:11.553Z,9.50
2019-04-03T09:26:41.936Z,9.00
2019-04-03T09:29:13.599Z,8.73
2019-04-03T09:31:43.642Z,9.03
2019-04-03T09:34:14.020Z,9.03
2019-04-03T09:36:44.245Z,8.87
2019-04-03T09:39:14.668Z,9.10
2019-04-03T09:41:45.690Z,8.03
2019-04-03T09:44:15.803Z,6.77
2019-04-03T09:46:46.091Z,7.73
2019-04-03T09:49:16.431Z,6.50
2019-04-03T09:51:46.391Z,8.23
2019-04-03T09:54:16.449Z,7.33
2019-04-03T09:56:59.351Z,7.87
2019-04-03T09:59:18.459Z,6.47
2019-04-03T10:01:49.602Z,7.23
2019-04-03T10:04:21.320Z,7.53
2019-04-03T10:06:51.898Z,6.80
2019-04-03T10:09:22.061Z,6.77
2019-04-03T10:11:52.621Z,6.60
2019-04-03T10:14:22.824Z,5.53
2019-04-03T10:16:53.134Z,5.40
2019-04-03T10:19:23.385Z,5.43
2019-04-03T10:21:53.594Z,5.73
2019-04-03T10:24:23.824Z,5.73
2019-04-03T10:26:53.887Z,5.27
2019-04-03T10:29:24.086Z,5.30
2019-04-03T10:31:55.768Z,4.80
2019-04-03T10:34:25.874Z,5.30
2019-04-03T10:36:56.041Z,4.63
2019-04-03T10:39:26.785Z,4.50
2019-04-03T10:41:58.127Z,4.67
2019-04-03T10:47:41.137Z,3.60
2019-04-03T10:50:04.897Z,4.23
2019-04-03T10:52:34.815Z,4.43
2019-04-03T10:55:05.266Z,4.00
2019-04-03T10:57:35.497Z,3.97
2019-04-03T11:00:07.032Z,4.20
2019-04-03T11:02:38.021Z,4.33
2019-04-03T11:05:08.312Z,4.17
2019-04-03T11:07:38.402Z,3.90
2019-04-03T11:10:10.103Z,4.27
2019-04-03T11:12:40.196Z,3.77
2019-04-03T11:15:11.537Z,3.77
2019-04-03T11:17:42.165Z,3.83
2019-04-03T11:20:12.370Z,3.33
2019-04-03T11:22:43.394Z,3.53
2019-04-03T11:25:15.376Z,3.17
2019-04-03T11:27:46.259Z,3.00
2019-04-03T11:30:21.567Z,2.83
2019-04-03T11:32:48.884Z,3.27
2019-04-03T11:35:20.825Z,2.80
2019-04-03T11:37:51.299Z,3.13
2019-04-03T11:40:24.250Z,2.87
2019-04-03T11:42:53.356Z,2.67
2019-04-03T11:45:24.611Z,2.90
2019-04-03T11:47:54.734Z,2.60
2019-04-03T11:50:25.434Z,2.47
2019-04-03T11:52:55.895Z,2.80
2019-04-03T11:55:25.884Z,2.77
2019-04-03T11:57:56.067Z,3.27
2019-04-03T12:00:31.023Z,2.70
2019-04-03T12:03:01.046Z,2.63
2019-04-03T12:05:31.458Z,2.60
2019-04-03T12:08:01.719Z,3.53
2019-04-03T12:10:32.827Z,2.90
2019-04-03T12:13:04.798Z,2.60
2019-04-03T12:15:34.938Z,3.37
2019-04-03T12:18:05.058Z,3.87
2019-04-03T12:20:35.023Z,3.80
2019-04-03T12:23:05.125Z,4.13
2019-04-03T12:25:38.657Z,2.93
2019-04-03T12:28:07.575Z,2.70
2019-04-03T12:30:37.972Z,2.80
2019-04-03T12:33:08.290Z,4.47
2019-04-03T12:35:41.063Z,4.37
2019-04-03T12:38:10.250Z,3.63
2019-04-03T12:40:40.313Z,4.13
2019-04-03T12:43:10.753Z,3.87
2019-04-03T12:45:41.070Z,3.77
2019-04-03T12:48:11.155Z,4.87
2019-04-03T12:50:41.241Z,3.93
2019-04-03T12:53:11.398Z,4.10
2019-04-03T12:55:42.939Z,3.83
2019-04-03T12:58:13.405Z,3.93
2019-04-03T13:00:45.648Z,5.00
2019-04-03T13:03:15.766Z,5.50
2019-04-03T13:05:48.516Z,5.80
2019-04-03T13:08:19.781Z,4.10
2019-04-03T13:10:49.643Z,4.73
2019-04-03T13:13:20.428Z,4.53
2019-04-03T13:15:51.576Z,4.50
2019-04-03T13:18:21.604Z,5.63
2019-04-03T13:20:51.580Z,4.97
2019-04-03T13:23:22.682Z,5.67
2019-04-03T13:25:53.176Z,5.90
2019-04-03T13:28:23.929Z,5.50
2019-04-03T13:30:54.147Z,5.57
2019-04-03T13:33:24.737Z,6.83
2019-04-03T13:35:55.089Z,5.67
2019-04-03T13:38:27.885Z,6.20
2019-04-03T13:40:57.271Z,6.33
2019-04-03T13:43:27.449Z,5.40
2019-04-03T13:45:57.943Z,6.27
2019-04-03T13:48:28.080Z,6.03
2019-04-03T13:50:58.547Z,6.60
2019-04-03T13:53:29.182Z,5.77
2019-04-03T13:55:59.217Z,5.60
2019-04-03T13:58:29.245Z,5.83
2019-04-03T14:01:02.802Z,5.30
2019-04-03T14:03:31.049Z,5.47
2019-04-03T14:06:02.239Z,5.07
2019-04-03T14:08:33.216Z,5.77
2019-04-03T14:11:04.157Z,5.27
2019-04-03T14:13:34.592Z,4.80
2019-04-03T14:16:18.159Z,5.50
2019-04-03T14:18:39.034Z,4.77
2019-04-03T14:21:08.335Z,5.43
2019-04-03T14:23:40.320Z,5.00
2019-04-03T14:26:12.944Z,6.00
2019-04-03T14:28:42.110Z,5.50
2019-04-03T14:31:12.202Z,5.47
2019-04-03T14:33:45.590Z,6.10
2019-04-03T14:36:14.034Z,6.05
2019-04-03T14:38:44.089Z,6.50
2019-04-03T14:41:17.064Z,5.30
2019-04-03T14:43:46.085Z,5.40
2019-04-03T14:46:18.051Z,5.23
2019-04-03T14:48:49.134Z,4.73
2019-04-03T14:51:19.305Z,6.37
2019-04-03T14:53:52.698Z,5.07
2019-04-03T14:56:21.993Z,6.17
2019-04-03T14:58:52.620Z,5.70
2019-04-03T15:01:22.740Z,5.80
2019-04-03T15:03:52.755Z,6.10
2019-04-03T15:06:23.060Z,7.20
2019-04-03T15:08:54.853Z,6.40
2019-04-03T15:11:26.674Z,8.57
2019-04-03T15:13:57.358Z,6.03
2019-04-03T15:16:27.631Z,6.47
2019-04-03T15:19:01.420Z,6.60
2019-04-03T15:21:30.902Z,6.10
2019-04-03T15:24:01.031Z,5.87
2019-04-03T15:26:31.464Z,6.87
2019-04-03T15:29:02.230Z,6.00
2019-04-03T15:31:32.312Z,6.50
2019-04-03T15:34:02.764Z,5.67
2019-04-03T15:36:34.864Z,6.93
2019-04-03T15:39:09.211Z,6.70
2019-04-03T15:41:39.463Z,5.33
2019-04-03T15:44:09.707Z,7.10
2019-04-03T15:46:39.780Z,6.03
2019-04-03T15:49:11.090Z,5.37
2019-04-03T15:51:41.124Z,5.97
2019-04-03T15:54:11.310Z,6.43
2019-04-03T15:56:42.182Z,8.07
2019-04-03T15:59:13.675Z,6.63
2019-04-03T16:01:44.505Z,6.13
2019-04-03T16:04:14.605Z,6.80
2019-04-03T16:06:45.034Z,6.57
2019-04-03T16:09:18.341Z,5.60
2019-04-03T16:11:47.350Z,6.27
2019-04-03T16:14:19.869Z,6.80
2019-04-03T16:16:49.211Z,9.83
2019-04-03T16:19:19.675Z,7.67
2019-04-03T16:21:50.580Z,9.60
2019-04-03T16:24:21.112Z,8.77
2019-04-03T16:26:51.627Z,6.47
2019-04-03T16:29:22.006Z,7.13
2019-04-03T16:31:54.136Z,7.40
2019-04-03T16:34:24.089Z,8.40
2019-04-03T16:36:54.340Z,8.07
2019-04-03T16:39:24.733Z,7.93
2019-04-03T16:41:54.796Z,7.67
2019-04-03T16:44:26.315Z,7.97
2019-04-03T16:46:56.618Z,8.73
2019-04-03T16:49:28.591Z,7.80
2019-04-03T16:51:59.616Z,7.07
2019-04-03T16:54:30.522Z,9.47
2019-04-03T16:57:03.485Z,8.43
2019-04-03T16:59:35.429Z,7.10
2019-04-03T17:02:05.191Z,9.50
2019-04-03T17:04:36.070Z,7.53
2019-04-03T17:07:07.593Z,7.60
2019-04-03T17:09:38.909Z,7.37
2019-04-03T17:12:09.602Z,7.83
2019-04-03T17:14:40.043Z,8.90
2019-04-03T17:17:13.636Z,7.90
2019-04-03T17:19:44.828Z,7.77
2019-04-03T17:22:14.796Z,7.93
2019-04-03T17:24:48.695Z,8.03
2019-04-03T17:27:19.871Z,7.27
2019-04-03T17:29:50.464Z,8.07
2019-04-03T17:32:20.927Z,7.47
2019-04-03T17:34:51.326Z,8.67
2019-04-03T17:37:24.305Z,8.00
2019-04-03T17:39:53.456Z,7.93
2019-04-03T17:42:25.828Z,7.80
2019-04-03T17:44:55.423Z,7.83
2019-04-03T17:47:25.517Z,8.20
2019-04-03T17:49:55.563Z,8.37
2019-04-03T17:52:25.547Z,8.27
2019-04-03T17:54:55.566Z,7.97
2019-04-03T17:57:25.552Z,8.57
2019-04-03T17:59:55.512Z,8.83
2019-04-03T18:02:25.598Z,8.30
2019-04-03T18:04:55.590Z,8.00
2019-04-03T18:07:28.295Z,8.43
2019-04-03T18:09:57.847Z,8.53
2019-04-03T18:12:27.815Z,8.47
2019-04-03T18:14:58.013Z,7.80
2019-04-03T18:17:29.940Z,8.47
2019-04-03T18:20:00.242Z,7.80
2019-04-03T18:22:30.200Z,8.17
2019-04-03T18:25:00.156Z,7.90
2019-04-03T18:27:33.229Z,8.70
2019-04-03T18:30:04.700Z,8.90
2019-04-03T18:32:34.704Z,8.83
2019-04-03T18:35:07.120Z,7.87
2019-04-03T18:37:36.784Z,9.47
2019-04-03T18:40:06.938Z,8.30
2019-04-03T18:42:36.983Z,8.33
2019-04-03T18:45:07.511Z,8.00
2019-04-03T18:47:41.449Z,8.33
2019-04-03T18:50:10.188Z,7.80
2019-04-03T18:52:40.589Z,7.60
2019-04-03T18:55:13.975Z,8.50
2019-04-03T18:57:43.320Z,8.70
2019-04-03T19:00:14.649Z,9.17
2019-04-03T19:02:44.674Z,10.80
2019-04-03T19:05:14.717Z,9.77
2019-04-03T19:07:46.669Z,8.47
2019-04-03T19:10:18.278Z,7.67
2019-04-03T19:12:48.357Z,8.20
2019-04-03T19:15:18.388Z,8.53
2019-04-03T19:17:59.509Z,7.40
2019-04-03T19:20:20.274Z,8.23
2019-04-03T19:23:02.059Z,7.27
2019-04-03T19:25:22.126Z,7.23
2019-04-03T19:27:52.161Z,8.00
2019-04-03T19:30:22.303Z,8.03
2019-04-03T19:32:52.432Z,7.73
2019-04-03T19:35:22.429Z,8.40
2019-04-03T19:37:52.443Z,8.10
2019-04-03T19:40:22.800Z,7.20
2019-04-03T19:42:52.786Z,7.70
2019-04-03T19:45:23.991Z,6.80
2019-04-03T19:47:55.579Z,7.80
2019-04-03T19:50:25.722Z,7.80
2019-04-03T19:52:55.792Z,7.20
2019-04-03T19:55:25.832Z,8.83
2019-04-03T19:57:57.846Z,9.17
2019-04-03T20:00:28.290Z,8.93
2019-04-03T20:02:58.400Z,8.53
2019-04-03T20:05:28.445Z,8.10
2019-04-03T20:07:59.462Z,7.33
2019-04-03T20:10:29.673Z,7.70
2019-04-03T20:12:59.827Z,9.63
2019-04-03T20:15:29.827Z,9.70
2019-04-03T20:17:59.832Z,7.93
2019-04-03T20:20:33.359Z,7.70
2019-04-03T20:23:01.601Z,10.50
2019-04-03T20:25:31.736Z,8.07
2019-04-03T20:28:01.901Z,8.67
2019-04-03T20:30:32.833Z,9.07
2019-04-03T20:33:04.280Z,9.70
2019-04-03T20:35:34.242Z,7.33
2019-04-03T20:38:04.380Z,9.87
2019-04-03T20:40:34.386Z,7.80
2019-04-03T20:43:04.527Z,7.90
2019-04-03T20:45:35.740Z,8.90
2019-04-03T20:48:05.773Z,9.87
2019-04-03T20:50:36.021Z,7.87
2019-04-03T20:53:08.655Z,7.77
2019-04-03T20:55:38.620Z,8.13
2019-04-03T20:58:10.285Z,7.90
2019-04-03T21:00:42.578Z,7.83
2019-04-03T21:03:13.074Z,8.17
2019-04-03T21:05:43.520Z,7.40
2019-04-03T21:08:14.600Z,7.57
2019-04-03T21:10:44.650Z,7.23
2019-04-03T21:13:15.486Z,7.10
2019-04-03T21:15:46.077Z,7.90
2019-04-03T21:18:16.349Z,7.40
2019-04-03T21:20:46.512Z,7.23
2019-04-03T21:23:16.498Z,7.10
2019-04-03T21:25:46.662Z,8.10
2019-04-03T21:28:16.699Z,8.10
2019-04-03T21:30:46.751Z,7.47
2019-04-03T21:33:17.443Z,8.07
2019-04-03T21:35:48.518Z,9.07
2019-04-03T21:38:18.490Z,7.83
2019-04-03T21:40:48.517Z,6.97
2019-04-03T21:43:18.495Z,7.90
2019-04-03T21:45:48.630Z,7.63
2019-04-03T21:48:18.602Z,7.47
2019-04-03T21:50:49.802Z,7.33
2019-04-03T21:53:20.430Z,9.73
2019-04-03T21:55:50.871Z,7.60
2019-04-03T21:58:20.816Z,7.27
2019-04-03T22:01:16.354Z,7.70
2019-04-03T22:03:46.617Z,7.33
2019-04-03T22:06:16.707Z,10.57
2019-04-03T22:08:47.918Z,7.87
2019-04-03T22:11:17.960Z,9.03
2019-04-03T22:13:48.018Z,11.27
2019-04-03T22:16:20.320Z,7.40
2019-04-03T22:18:49.892Z,7.53
2019-04-03T22:21:19.954Z,10.17
2019-04-03T22:23:49.920Z,8.00
2019-04-03T22:26:19.951Z,10.00
2019-04-03T22:28:49.926Z,7.90
2019-04-03T22:31:20.978Z,9.10
2019-04-03T22:33:51.864Z,7.60
2019-04-03T22:36:22.008Z,10.60
2019-04-03T22:38:51.974Z,9.17
2019-04-03T22:41:22.052Z,9.57
2019-04-03T22:43:52.139Z,9.10
2019-04-03T22:46:22.663Z,8.77
2019-04-03T22:48:53.866Z,9.27
2019-04-03T22:51:23.933Z,8.27
2019-04-03T22:53:53.858Z,8.87
2019-04-03T22:56:23.910Z,8.97
2019-04-03T22:58:54.009Z,10.27
2019-04-03T23:01:24.102Z,8.47
2019-04-03T23:03:54.074Z,7.73
2019-04-03T23:06:24.161Z,8.37
2019-04-03T23:08:54.508Z,9.00
2019-04-03T23:11:24.582Z,8.57
2019-04-03T23:13:54.533Z,8.93
2019-04-03T23:16:24.625Z,8.33
2019-04-03T23:18:54.590Z,8.07
2019-04-03T23:21:25.559Z,8.73
2019-04-03T23:23:57.922Z,9.10
2019-04-03T23:26:31.768Z,9.33
2019-04-03T23:29:00.110Z,12.60
2019-04-03T23:31:30.327Z,8.60
2019-04-03T23:34:00.447Z,8.50
2019-04-03T23:36:30.515Z,10.00
2019-04-03T23:39:00.594Z,11.93
2019-04-03T23:41:32.282Z,11.83
2019-04-03T23:44:02.327Z,10.07
2019-04-03T23:46:32.371Z,9.07
2019-04-03T23:49:02.339Z,9.30
2019-04-03T23:51:32.565Z,11.13
2019-04-03T23:54:03.265Z,9.17
2019-04-03T23:56:33.438Z,10.70
2019-04-03T23:59:04.261Z,9.83
